sensor_id;sensor_type;location;lat;lon;timestamp;P1;durP1;ratioP1;P2;durP2;ratioP2
50976;SDS011;36992;48.200;12.418;2022-08-21T00:01:09;4.97;;;1.85;;
50976;SDS011;36992;48.200;12.418;2022-08-21T00:03:40;1.75;;;0.80;;
50976;SDS011;36992;48.200;12.418;2022-08-21T00:06:07;2.20;;;0.60;;
50976;SDS011;36992;48.200;12.418;2022-08-21T00:08:35;1.20;;;0.47;;
50976;SDS011;36992;48.200;12.418;2022-08-21T00:11:02;1.70;;;0.68;;
50976;SDS011;36992;48.200;12.418;2022-08-21T00:13:30;0.95;;;0.38;;
50976;SDS011;36992;48.200;12.418;2022-08-21T00:15:57;2.47;;;0.90;;
50976;SDS011;36992;48.200;12.418;2022-08-21T00:18:24;2.90;;;0.60;;
50976;SDS011;36992;48.200;12.418;2022-08-21T00:20:51;2.00;;;0.90;;
50976;SDS011;36992;48.200;12.418;2022-08-21T00:23:18;1.42;;;0.55;;
50976;SDS011;36992;48.200;12.418;2022-08-21T00:25:46;0.60;;;0.30;;
50976;SDS011;36992;48.200;12.418;2022-08-21T00:28:13;1.77;;;0.40;;
50976;SDS011;36992;48.200;12.418;2022-08-21T00:30:41;2.53;;;0.63;;
50976;SDS011;36992;48.200;12.418;2022-08-21T00:33:09;1.75;;;0.80;;
50976;SDS011;36992;48.200;12.418;2022-08-21T00:35:37;1.58;;;0.60;;
50976;SDS011;36992;48.200;12.418;2022-08-21T00:38:06;2.95;;;0.68;;
50976;SDS011;36992;48.200;12.418;2022-08-21T00:40:34;1.40;;;0.60;;
50976;SDS011;36992;48.200;12.418;2022-08-21T00:43:04;1.27;;;0.50;;
50976;SDS011;36992;48.200;12.418;2022-08-21T00:45:42;1.83;;;0.50;;
50976;SDS011;36992;48.200;12.418;2022-08-21T00:50:37;0.93;;;0.47;;
50976;SDS011;36992;48.200;12.418;2022-08-21T00:53:08;1.42;;;0.50;;
50976;SDS011;36992;48.200;12.418;2022-08-21T00:55:37;3.42;;;0.90;;
50976;SDS011;36992;48.200;12.418;2022-08-21T00:58:06;2.33;;;0.52;;
50976;SDS011;36992;48.200;12.418;2022-08-21T01:00:34;3.13;;;0.40;;
50976;SDS011;36992;48.200;12.418;2022-08-21T01:03:05;1.52;;;0.52;;
50976;SDS011;36992;48.200;12.418;2022-08-21T01:05:34;3.13;;;0.50;;
50976;SDS011;36992;48.200;12.418;2022-08-21T01:08:01;1.27;;;0.52;;
50976;SDS011;36992;48.200;12.418;2022-08-21T01:10:28;1.10;;;0.30;;
50976;SDS011;36992;48.200;12.418;2022-08-21T01:12:56;3.28;;;0.55;;
50976;SDS011;36992;48.200;12.418;2022-08-21T01:15:26;1.05;;;0.50;;
50976;SDS011;36992;48.200;12.418;2022-08-21T01:17:56;1.02;;;0.30;;
50976;SDS011;36992;48.200;12.418;2022-08-21T01:20:23;3.70;;;0.70;;
50976;SDS011;36992;48.200;12.418;2022-08-21T01:22:51;2.03;;;1.00;;
50976;SDS011;36992;48.200;12.418;2022-08-21T01:25:18;2.10;;;0.50;;
50976;SDS011;36992;48.200;12.418;2022-08-21T01:27:45;0.88;;;0.32;;
50976;SDS011;36992;48.200;12.418;2022-08-21T01:30:13;1.63;;;0.60;;
50976;SDS011;36992;48.200;12.418;2022-08-21T01:32:42;1.60;;;0.50;;
50976;SDS011;36992;48.200;12.418;2022-08-21T01:35:09;0.70;;;0.30;;
50976;SDS011;36992;48.200;12.418;2022-08-21T01:37:37;1.13;;;0.30;;
50976;SDS011;36992;48.200;12.418;2022-08-21T01:40:05;0.65;;;0.30;;
50976;SDS011;36992;48.200;12.418;2022-08-21T01:42:34;1.40;;;0.35;;
50976;SDS011;36992;48.200;12.418;2022-08-21T01:45:01;0.63;;;0.22;;
50976;SDS011;36992;48.200;12.418;2022-08-21T01:47:28;1.15;;;0.30;;
50976;SDS011;36992;48.200;12.418;2022-08-21T01:49:55;1.92;;;0.40;;
50976;SDS011;36992;48.200;12.418;2022-08-21T01:52:22;1.13;;;0.43;;
50976;SDS011;36992;48.200;12.418;2022-08-21T01:54:48;0.80;;;0.20;;
50976;SDS011;36992;48.200;12.418;2022-08-21T01:57:16;1.70;;;0.32;;
50976;SDS011;36992;48.200;12.418;2022-08-21T01:59:43;1.58;;;0.40;;
50976;SDS011;36992;48.200;12.418;2022-08-21T02:02:10;1.15;;;0.30;;
50976;SDS011;36992;48.200;12.418;2022-08-21T02:04:36;1.17;;;0.38;;
50976;SDS011;36992;48.200;12.418;2022-08-21T02:07:03;0.63;;;0.20;;
50976;SDS011;36992;48.200;12.418;2022-08-21T02:09:30;0.52;;;0.20;;
50976;SDS011;36992;48.200;12.418;2022-08-21T02:11:56;1.33;;;0.20;;
50976;SDS011;36992;48.200;12.418;2022-08-21T02:14:24;1.10;;;0.50;;
50976;SDS011;36992;48.200;12.418;2022-08-21T02:16:51;0.60;;;0.20;;
50976;SDS011;36992;48.200;12.418;2022-08-21T02:19:18;1.55;;;0.20;;
50976;SDS011;36992;48.200;12.418;2022-08-21T02:21:44;0.77;;;0.35;;
50976;SDS011;36992;48.200;12.418;2022-08-21T02:24:11;0.77;;;0.20;;
50976;SDS011;36992;48.200;12.418;2022-08-21T02:26:38;1.25;;;0.30;;
50976;SDS011;36992;48.200;12.418;2022-08-21T02:29:04;1.15;;;0.47;;
50976;SDS011;36992;48.200;12.418;2022-08-21T02:31:32;1.00;;;0.17;;
50976;SDS011;36992;48.200;12.418;2022-08-21T02:33:59;0.60;;;0.20;;
50976;SDS011;36992;48.200;12.418;2022-08-21T02:36:26;2.20;;;0.20;;
50976;SDS011;36992;48.200;12.418;2022-08-21T02:38:53;2.90;;;0.43;;
50976;SDS011;36992;48.200;12.418;2022-08-21T02:41:20;0.82;;;0.32;;
50976;SDS011;36992;48.200;12.418;2022-08-21T02:43:47;1.27;;;0.30;;
50976;SDS011;36992;48.200;12.418;2022-08-21T02:46:15;0.95;;;0.40;;
50976;SDS011;36992;48.200;12.418;2022-08-21T02:48:44;1.50;;;0.22;;
50976;SDS011;36992;48.200;12.418;2022-08-21T02:51:13;1.13;;;0.38;;
50976;SDS011;36992;48.200;12.418;2022-08-21T02:53:42;0.80;;;0.30;;
50976;SDS011;36992;48.200;12.418;2022-08-21T02:56:11;1.48;;;0.20;;
50976;SDS011;36992;48.200;12.418;2022-08-21T02:58:41;1.88;;;0.17;;
50976;SDS011;36992;48.200;12.418;2022-08-21T03:01:11;0.68;;;0.25;;
50976;SDS011;36992;48.200;12.418;2022-08-21T03:03:39;2.63;;;0.20;;
50976;SDS011;36992;48.200;12.418;2022-08-21T03:06:09;0.50;;;0.20;;
50976;SDS011;36992;48.200;12.418;2022-08-21T03:08:38;0.50;;;0.20;;
50976;SDS011;36992;48.200;12.418;2022-08-21T03:11:05;1.67;;;0.20;;
50976;SDS011;36992;48.200;12.418;2022-08-21T03:13:32;0.98;;;0.20;;
50976;SDS011;36992;48.200;12.418;2022-08-21T03:15:59;0.93;;;0.30;;
50976;SDS011;36992;48.200;12.418;2022-08-21T03:18:25;2.17;;;0.20;;
50976;SDS011;36992;48.200;12.418;2022-08-21T03:20:52;0.93;;;0.40;;
50976;SDS011;36992;48.200;12.418;2022-08-21T03:23:20;1.35;;;0.20;;
50976;SDS011;36992;48.200;12.418;2022-08-21T03:25:47;0.90;;;0.10;;
50976;SDS011;36992;48.200;12.418;2022-08-21T03:28:16;1.50;;;0.28;;
50976;SDS011;36992;48.200;12.418;2022-08-21T03:30:45;0.65;;;0.20;;
50976;SDS011;36992;48.200;12.418;2022-08-21T03:33:13;3.72;;;0.30;;
50976;SDS011;36992;48.200;12.418;2022-08-21T03:35:40;0.40;;;0.20;;
50976;SDS011;36992;48.200;12.418;2022-08-21T03:38:08;1.27;;;0.20;;
50976;SDS011;36992;48.200;12.418;2022-08-21T03:40:36;0.30;;;0.20;;
50976;SDS011;36992;48.200;12.418;2022-08-21T03:43:03;0.40;;;0.20;;
50976;SDS011;36992;48.200;12.418;2022-08-21T03:45:30;0.82;;;0.30;;
50976;SDS011;36992;48.200;12.418;2022-08-21T03:47:58;0.95;;;0.20;;
50976;SDS011;36992;48.200;12.418;2022-08-21T03:50:26;0.57;;;0.10;;
50976;SDS011;36992;48.200;12.418;2022-08-21T03:52:56;0.38;;;0.20;;
50976;SDS011;36992;48.200;12.418;2022-08-21T03:55:23;1.27;;;0.20;;
50976;SDS011;36992;48.200;12.418;2022-08-21T03:57:51;0.40;;;0.20;;
50976;SDS011;36992;48.200;12.418;2022-08-21T04:00:19;0.50;;;0.20;;
50976;SDS011;36992;48.200;12.418;2022-08-21T04:02:46;0.60;;;0.20;;
50976;SDS011;36992;48.200;12.418;2022-08-21T04:05:13;0.52;;;0.20;;
50976;SDS011;36992;48.200;12.418;2022-08-21T04:07:51;1.20;;;0.13;;
50976;SDS011;36992;48.200;12.418;2022-08-21T04:10:19;0.60;;;0.20;;
50976;SDS011;36992;48.200;12.418;2022-08-21T04:12:45;2.22;;;0.30;;
50976;SDS011;36992;48.200;12.418;2022-08-21T04:15:13;3.90;;;0.13;;
50976;SDS011;36992;48.200;12.418;2022-08-21T04:17:40;1.33;;;0.30;;
50976;SDS011;36992;48.200;12.418;2022-08-21T04:20:07;1.10;;;0.40;;
50976;SDS011;36992;48.200;12.418;2022-08-21T04:22:34;0.80;;;0.20;;
50976;SDS011;36992;48.200;12.418;2022-08-21T04:25:00;1.35;;;0.20;;
50976;SDS011;36992;48.200;12.418;2022-08-21T04:27:27;1.15;;;0.30;;
50976;SDS011;36992;48.200;12.418;2022-08-21T04:29:53;2.95;;;0.30;;
50976;SDS011;36992;48.200;12.418;2022-08-21T04:32:24;0.45;;;0.20;;
50976;SDS011;36992;48.200;12.418;2022-08-21T04:34:57;0.63;;;0.20;;
50976;SDS011;36992;48.200;12.418;2022-08-21T04:37:24;0.52;;;0.20;;
50976;SDS011;36992;48.200;12.418;2022-08-21T04:39:51;1.10;;;0.50;;
50976;SDS011;36992;48.200;12.418;2022-08-21T04:42:17;0.95;;;0.50;;
50976;SDS011;36992;48.200;12.418;2022-08-21T04:44:44;0.60;;;0.20;;
50976;SDS011;36992;48.200;12.418;2022-08-21T04:47:10;1.13;;;0.30;;
50976;SDS011;36992;48.200;12.418;2022-08-21T04:49:38;0.30;;;0.20;;
50976;SDS011;36992;48.200;12.418;2022-08-21T04:52:06;1.23;;;0.25;;
50976;SDS011;36992;48.200;12.418;2022-08-21T04:54:32;2.92;;;0.40;;
50976;SDS011;36992;48.200;12.418;2022-08-21T04:57:00;1.05;;;0.30;;
50976;SDS011;36992;48.200;12.418;2022-08-21T04:59:30;2.25;;;0.20;;
50976;SDS011;36992;48.200;12.418;2022-08-21T05:02:02;1.20;;;0.30;;
50976;SDS011;36992;48.200;12.418;2022-08-21T05:04:31;0.60;;;0.25;;
50976;SDS011;36992;48.200;12.418;2022-08-21T05:07:02;0.73;;;0.30;;
50976;SDS011;36992;48.200;12.418;2022-08-21T05:09:31;1.20;;;0.20;;
50976;SDS011;36992;48.200;12.418;2022-08-21T05:12:00;0.63;;;0.20;;
50976;SDS011;36992;48.200;12.418;2022-08-21T05:14:27;0.47;;;0.20;;
50976;SDS011;36992;48.200;12.418;2022-08-21T05:16:54;0.40;;;0.10;;
50976;SDS011;36992;48.200;12.418;2022-08-21T05:19:20;0.60;;;0.22;;
50976;SDS011;36992;48.200;12.418;2022-08-21T05:21:46;0.75;;;0.30;;
50976;SDS011;36992;48.200;12.418;2022-08-21T05:24:15;0.50;;;0.20;;
50976;SDS011;36992;48.200;12.418;2022-08-21T05:26:42;0.50;;;0.30;;
50976;SDS011;36992;48.200;12.418;2022-08-21T05:29:09;1.00;;;0.20;;
50976;SDS011;36992;48.200;12.418;2022-08-21T05:31:36;0.28;;;0.13;;
50976;SDS011;36992;48.200;12.418;2022-08-21T05:34:03;0.93;;;0.20;;
50976;SDS011;36992;48.200;12.418;2022-08-21T05:36:29;0.85;;;0.30;;
50976;SDS011;36992;48.200;12.418;2022-08-21T05:38:56;1.95;;;0.38;;
50976;SDS011;36992;48.200;12.418;2022-08-21T05:41:24;0.75;;;0.20;;
50976;SDS011;36992;48.200;12.418;2022-08-21T05:43:51;0.65;;;0.20;;
50976;SDS011;36992;48.200;12.418;2022-08-21T05:46:17;2.20;;;0.30;;
50976;SDS011;36992;48.200;12.418;2022-08-21T05:48:43;0.73;;;0.20;;
50976;SDS011;36992;48.200;12.418;2022-08-21T05:51:11;0.75;;;0.20;;
50976;SDS011;36992;48.200;12.418;2022-08-21T05:53:39;0.57;;;0.30;;
50976;SDS011;36992;48.200;12.418;2022-08-21T05:56:07;0.85;;;0.25;;
50976;SDS011;36992;48.200;12.418;2022-08-21T05:58:35;1.02;;;0.30;;
50976;SDS011;36992;48.200;12.418;2022-08-21T06:01:02;3.55;;;0.40;;
50976;SDS011;36992;48.200;12.418;2022-08-21T06:03:30;0.57;;;0.25;;
50976;SDS011;36992;48.200;12.418;2022-08-21T06:05:59;0.85;;;0.20;;
50976;SDS011;36992;48.200;12.418;2022-08-21T06:08:27;0.77;;;0.25;;
50976;SDS011;36992;48.200;12.418;2022-08-21T06:10:55;2.47;;;0.35;;
50976;SDS011;36992;48.200;12.418;2022-08-21T06:13:23;1.35;;;0.22;;
50976;SDS011;36992;48.200;12.418;2022-08-21T06:15:59;1.00;;;0.20;;
50976;SDS011;36992;48.200;12.418;2022-08-21T06:18:27;1.02;;;0.52;;
50976;SDS011;36992;48.200;12.418;2022-08-21T06:20:53;2.30;;;0.30;;
50976;SDS011;36992;48.200;12.418;2022-08-21T06:23:20;0.50;;;0.30;;
50976;SDS011;36992;48.200;12.418;2022-08-21T06:25:47;0.93;;;0.30;;
50976;SDS011;36992;48.200;12.418;2022-08-21T06:28:13;0.93;;;0.30;;
50976;SDS011;36992;48.200;12.418;2022-08-21T06:30:40;0.63;;;0.28;;
50976;SDS011;36992;48.200;12.418;2022-08-21T06:33:07;0.60;;;0.20;;
50976;SDS011;36992;48.200;12.418;2022-08-21T06:35:34;1.38;;;0.22;;
50976;SDS011;36992;48.200;12.418;2022-08-21T06:38:02;0.43;;;0.20;;
50976;SDS011;36992;48.200;12.418;2022-08-21T06:40:29;1.90;;;0.38;;
50976;SDS011;36992;48.200;12.418;2022-08-21T06:42:56;1.58;;;0.50;;
50976;SDS011;36992;48.200;12.418;2022-08-21T06:45:23;1.90;;;0.30;;
50976;SDS011;36992;48.200;12.418;2022-08-21T06:47:51;5.88;;;1.50;;
50976;SDS011;36992;48.200;12.418;2022-08-21T06:50:19;0.60;;;0.20;;
50976;SDS011;36992;48.200;12.418;2022-08-21T06:52:45;3.67;;;0.60;;
50976;SDS011;36992;48.200;12.418;2022-08-21T06:55:12;0.47;;;0.25;;
50976;SDS011;36992;48.200;12.418;2022-08-21T06:57:38;0.52;;;0.20;;
50976;SDS011;36992;48.200;12.418;2022-08-21T07:00:05;0.80;;;0.20;;
50976;SDS011;36992;48.200;12.418;2022-08-21T07:02:34;0.40;;;0.20;;
50976;SDS011;36992;48.200;12.418;2022-08-21T07:05:00;1.85;;;0.20;;
50976;SDS011;36992;48.200;12.418;2022-08-21T07:07:28;0.55;;;0.20;;
50976;SDS011;36992;48.200;12.418;2022-08-21T07:09:55;2.05;;;0.30;;
50976;SDS011;36992;48.200;12.418;2022-08-21T07:12:21;0.70;;;0.20;;
50976;SDS011;36992;48.200;12.418;2022-08-21T07:14:48;0.68;;;0.30;;
50976;SDS011;36992;48.200;12.418;2022-08-21T07:17:14;0.82;;;0.40;;
50976;SDS011;36992;48.200;12.418;2022-08-21T07:19:41;1.95;;;0.20;;
50976;SDS011;36992;48.200;12.418;2022-08-21T07:22:07;1.33;;;0.30;;
50976;SDS011;36992;48.200;12.418;2022-08-21T07:24:35;1.02;;;0.25;;
50976;SDS011;36992;48.200;12.418;2022-08-21T07:27:02;1.15;;;0.30;;
50976;SDS011;36992;48.200;12.418;2022-08-21T07:29:29;1.15;;;0.30;;
50976;SDS011;36992;48.200;12.418;2022-08-21T07:31:55;0.65;;;0.30;;
50976;SDS011;36992;48.200;12.418;2022-08-21T07:34:22;0.90;;;0.20;;
50976;SDS011;36992;48.200;12.418;2022-08-21T07:36:48;0.52;;;0.30;;
50976;SDS011;36992;48.200;12.418;2022-08-21T07:39:15;2.10;;;0.47;;
50976;SDS011;36992;48.200;12.418;2022-08-21T07:41:42;1.08;;;0.40;;
50976;SDS011;36992;48.200;12.418;2022-08-21T07:44:09;1.27;;;0.47;;
50976;SDS011;36992;48.200;12.418;2022-08-21T07:46:35;1.25;;;0.28;;
50976;SDS011;36992;48.200;12.418;2022-08-21T07:49:02;2.72;;;0.40;;
50976;SDS011;36992;48.200;12.418;2022-08-21T07:51:29;1.25;;;0.40;;
50976;SDS011;36992;48.200;12.418;2022-08-21T07:53:57;2.25;;;0.30;;
50976;SDS011;36992;48.200;12.418;2022-08-21T07:56:24;1.88;;;0.40;;
50976;SDS011;36992;48.200;12.418;2022-08-21T07:58:52;1.73;;;0.43;;
50976;SDS011;36992;48.200;12.418;2022-08-21T08:01:19;1.30;;;0.30;;
50976;SDS011;36992;48.200;12.418;2022-08-21T08:03:46;1.35;;;0.45;;
50976;SDS011;36992;48.200;12.418;2022-08-21T08:06:12;2.17;;;0.50;;
50976;SDS011;36992;48.200;12.418;2022-08-21T08:08:41;1.92;;;0.47;;
50976;SDS011;36992;48.200;12.418;2022-08-21T08:11:08;2.22;;;0.50;;
50976;SDS011;36992;48.200;12.418;2022-08-21T08:13:38;2.90;;;0.40;;
50976;SDS011;36992;48.200;12.418;2022-08-21T08:16:07;1.77;;;0.77;;
50976;SDS011;36992;48.200;12.418;2022-08-21T08:18:34;0.93;;;0.50;;
50976;SDS011;36992;48.200;12.418;2022-08-21T08:21:00;1.10;;;0.50;;
50976;SDS011;36992;48.200;12.418;2022-08-21T08:23:27;2.45;;;0.93;;
50976;SDS011;36992;48.200;12.418;2022-08-21T08:25:55;2.30;;;0.90;;
50976;SDS011;36992;48.200;12.418;2022-08-21T08:28:22;2.53;;;0.60;;
50976;SDS011;36992;48.200;12.418;2022-08-21T08:30:48;1.40;;;0.60;;
50976;SDS011;36992;48.200;12.418;2022-08-21T08:33:17;1.88;;;0.57;;
50976;SDS011;36992;48.200;12.418;2022-08-21T08:35:44;1.23;;;0.50;;
50976;SDS011;36992;48.200;12.418;2022-08-21T08:38:12;2.80;;;0.65;;
50976;SDS011;36992;48.200;12.418;2022-08-21T08:40:44;2.30;;;0.98;;
50976;SDS011;36992;48.200;12.418;2022-08-21T08:43:13;3.05;;;0.60;;
50976;SDS011;36992;48.200;12.418;2022-08-21T08:45:42;1.10;;;0.38;;
50976;SDS011;36992;48.200;12.418;2022-08-21T08:48:13;1.42;;;0.80;;
50976;SDS011;36992;48.200;12.418;2022-08-21T08:50:47;2.40;;;0.50;;
50976;SDS011;36992;48.200;12.418;2022-08-21T08:53:15;1.80;;;0.90;;
50976;SDS011;36992;48.200;12.418;2022-08-21T08:55:46;1.23;;;0.60;;
50976;SDS011;36992;48.200;12.418;2022-08-21T08:58:14;3.03;;;0.70;;
50976;SDS011;36992;48.200;12.418;2022-08-21T09:00:46;0.88;;;0.40;;
50976;SDS011;36992;48.200;12.418;2022-08-21T09:03:16;1.40;;;0.45;;
50976;SDS011;36992;48.200;12.418;2022-08-21T09:05:45;1.00;;;0.40;;
50976;SDS011;36992;48.200;12.418;2022-08-21T09:08:20;1.52;;;0.60;;
50976;SDS011;36992;48.200;12.418;2022-08-21T09:10:58;1.27;;;0.52;;
50976;SDS011;36992;48.200;12.418;2022-08-21T09:13:32;2.67;;;0.70;;
50976;SDS011;36992;48.200;12.418;2022-08-21T09:16:12;1.55;;;0.50;;
50976;SDS011;36992;48.200;12.418;2022-08-21T09:18:52;1.92;;;0.70;;
50976;SDS011;36992;48.200;12.418;2022-08-21T09:21:28;2.17;;;0.70;;
50976;SDS011;36992;48.200;12.418;2022-08-21T09:24:10;1.35;;;0.63;;
50976;SDS011;36992;48.200;12.418;2022-08-21T09:26:49;1.42;;;0.77;;
50976;SDS011;36992;48.200;12.418;2022-08-21T09:29:21;2.38;;;0.55;;
50976;SDS011;36992;48.200;12.418;2022-08-21T09:31:54;1.20;;;0.65;;
50976;SDS011;36992;48.200;12.418;2022-08-21T09:34:24;1.25;;;0.40;;
50976;SDS011;36992;48.200;12.418;2022-08-21T09:36:54;2.75;;;0.60;;
50976;SDS011;36992;48.200;12.418;2022-08-21T09:39:24;1.95;;;0.45;;
50976;SDS011;36992;48.200;12.418;2022-08-21T09:41:56;1.20;;;0.40;;
50976;SDS011;36992;48.200;12.418;2022-08-21T09:44:25;2.13;;;0.40;;
50976;SDS011;36992;48.200;12.418;2022-08-21T09:46:53;1.35;;;0.60;;
50976;SDS011;36992;48.200;12.418;2022-08-21T09:49:27;0.77;;;0.30;;
50976;SDS011;36992;48.200;12.418;2022-08-21T09:51:55;1.80;;;0.52;;
50976;SDS011;36992;48.200;12.418;2022-08-21T09:54:24;0.80;;;0.30;;
50976;SDS011;36992;48.200;12.418;2022-08-21T09:56:55;1.30;;;0.60;;
50976;SDS011;36992;48.200;12.418;2022-08-21T09:59:41;1.48;;;0.40;;
50976;SDS011;36992;48.200;12.418;2022-08-21T10:02:23;1.92;;;0.52;;
50976;SDS011;36992;48.200;12.418;2022-08-21T10:04:52;1.70;;;0.50;;
50976;SDS011;36992;48.200;12.418;2022-08-21T10:07:23;1.80;;;0.50;;
50976;SDS011;36992;48.200;12.418;2022-08-21T10:09:58;1.30;;;0.50;;
50976;SDS011;36992;48.200;12.418;2022-08-21T10:12:31;1.75;;;0.70;;
50976;SDS011;36992;48.200;12.418;2022-08-21T10:15:08;1.02;;;0.40;;
50976;SDS011;36992;48.200;12.418;2022-08-21T10:20:11;1.77;;;0.60;;
50976;SDS011;36992;48.200;12.418;2022-08-21T10:22:45;1.67;;;0.50;;
50976;SDS011;36992;48.200;12.418;2022-08-21T10:25:20;1.77;;;0.75;;
50976;SDS011;36992;48.200;12.418;2022-08-21T10:27:54;1.65;;;0.70;;
50976;SDS011;36992;48.200;12.418;2022-08-21T10:30:33;0.80;;;0.35;;
50976;SDS011;36992;48.200;12.418;2022-08-21T10:33:11;0.68;;;0.32;;
50976;SDS011;36992;48.200;12.418;2022-08-21T10:35:49;1.70;;;0.50;;
50976;SDS011;36992;48.200;12.418;2022-08-21T10:38:33;2.75;;;0.82;;
50976;SDS011;36992;48.200;12.418;2022-08-21T10:41:10;0.95;;;0.40;;
50976;SDS011;36992;48.200;12.418;2022-08-21T10:43:47;1.60;;;0.60;;
50976;SDS011;36992;48.200;12.418;2022-08-21T10:46:33;1.67;;;0.52;;
50976;SDS011;36992;48.200;12.418;2022-08-21T10:49:11;1.40;;;0.50;;
50976;SDS011;36992;48.200;12.418;2022-08-21T10:51:48;1.77;;;0.50;;
50976;SDS011;36992;48.200;12.418;2022-08-21T10:54:23;4.18;;;0.50;;
50976;SDS011;36992;48.200;12.418;2022-08-21T10:56:58;1.50;;;0.47;;
50976;SDS011;36992;48.200;12.418;2022-08-21T10:59:33;2.80;;;0.60;;
50976;SDS011;36992;48.200;12.418;2022-08-21T11:02:09;2.00;;;0.70;;
50976;SDS011;36992;48.200;12.418;2022-08-21T11:04:45;2.22;;;0.85;;
50976;SDS011;36992;48.200;12.418;2022-08-21T11:07:20;2.25;;;0.60;;
50976;SDS011;36992;48.200;12.418;2022-08-21T11:09:53;1.35;;;0.60;;
50976;SDS011;36992;48.200;12.418;2022-08-21T11:12:24;2.92;;;0.73;;
50976;SDS011;36992;48.200;12.418;2022-08-21T11:14:56;2.33;;;0.65;;
50976;SDS011;36992;48.200;12.418;2022-08-21T11:17:28;1.95;;;0.90;;
50976;SDS011;36992;48.200;12.418;2022-08-21T11:20:02;2.05;;;0.98;;
50976;SDS011;36992;48.200;12.418;2022-08-21T11:22:35;1.90;;;0.88;;
50976;SDS011;36992;48.200;12.418;2022-08-21T11:25:09;1.98;;;1.00;;
50976;SDS011;36992;48.200;12.418;2022-08-21T11:27:44;5.70;;;1.10;;
50976;SDS011;36992;48.200;12.418;2022-08-21T11:30:15;2.05;;;0.70;;
50976;SDS011;36992;48.200;12.418;2022-08-21T11:35:32;2.35;;;0.98;;
50976;SDS011;36992;48.200;12.418;2022-08-21T11:38:08;2.83;;;1.10;;
50976;SDS011;36992;48.200;12.418;2022-08-21T11:40:51;1.48;;;0.93;;
50976;SDS011;36992;48.200;12.418;2022-08-21T11:43:33;2.10;;;1.08;;
50976;SDS011;36992;48.200;12.418;2022-08-21T11:46:08;2.85;;;0.85;;
50976;SDS011;36992;48.200;12.418;2022-08-21T11:48:46;3.00;;;0.90;;
50976;SDS011;36992;48.200;12.418;2022-08-21T11:51:21;3.88;;;1.27;;
50976;SDS011;36992;48.200;12.418;2022-08-21T11:53:59;3.85;;;1.20;;
50976;SDS011;36992;48.200;12.418;2022-08-21T11:56:34;1.70;;;0.88;;
50976;SDS011;36992;48.200;12.418;2022-08-21T11:59:07;2.00;;;1.00;;
50976;SDS011;36992;48.200;12.418;2022-08-21T12:01:39;1.20;;;0.65;;
50976;SDS011;36992;48.200;12.418;2022-08-21T12:04:10;1.58;;;0.95;;
50976;SDS011;36992;48.200;12.418;2022-08-21T12:06:48;2.25;;;0.75;;
50976;SDS011;36992;48.200;12.418;2022-08-21T12:09:28;1.25;;;0.70;;
50976;SDS011;36992;48.200;12.418;2022-08-21T12:12:02;2.70;;;0.88;;
50976;SDS011;36992;48.200;12.418;2022-08-21T12:14:38;2.15;;;0.82;;
50976;SDS011;36992;48.200;12.418;2022-08-21T12:17:07;1.05;;;0.40;;
50976;SDS011;36992;48.200;12.418;2022-08-21T12:19:42;0.98;;;0.47;;
50976;SDS011;36992;48.200;12.418;2022-08-21T12:22:10;0.80;;;0.40;;
50976;SDS011;36992;48.200;12.418;2022-08-21T12:24:39;1.40;;;0.65;;
50976;SDS011;36992;48.200;12.418;2022-08-21T12:27:20;1.52;;;0.52;;
50976;SDS011;36992;48.200;12.418;2022-08-21T12:29:51;1.33;;;0.63;;
50976;SDS011;36992;48.200;12.418;2022-08-21T12:32:26;1.48;;;0.70;;
50976;SDS011;36992;48.200;12.418;2022-08-21T12:34:56;4.03;;;1.00;;
50976;SDS011;36992;48.200;12.418;2022-08-21T12:37:30;2.50;;;1.02;;
50976;SDS011;36992;48.200;12.418;2022-08-21T12:40:04;1.20;;;0.70;;
50976;SDS011;36992;48.200;12.418;2022-08-21T12:42:41;1.67;;;0.70;;
50976;SDS011;36992;48.200;12.418;2022-08-21T12:45:15;3.33;;;0.85;;
50976;SDS011;36992;48.200;12.418;2022-08-21T12:47:47;1.20;;;0.60;;
50976;SDS011;36992;48.200;12.418;2022-08-21T12:50:19;3.22;;;0.90;;
50976;SDS011;36992;48.200;12.418;2022-08-21T12:52:48;1.20;;;0.68;;
50976;SDS011;36992;48.200;12.418;2022-08-21T12:55:25;1.60;;;0.80;;
50976;SDS011;36992;48.200;12.418;2022-08-21T12:57:55;1.58;;;1.02;;
50976;SDS011;36992;48.200;12.418;2022-08-21T13:00:23;1.40;;;0.77;;
50976;SDS011;36992;48.200;12.418;2022-08-21T13:02:51;1.85;;;0.70;;
50976;SDS011;36992;48.200;12.418;2022-08-21T13:05:19;1.45;;;0.73;;
50976;SDS011;36992;48.200;12.418;2022-08-21T13:07:54;1.85;;;0.80;;
50976;SDS011;36992;48.200;12.418;2022-08-21T13:10:22;3.05;;;1.13;;
50976;SDS011;36992;48.200;12.418;2022-08-21T13:12:53;1.77;;;0.70;;
50976;SDS011;36992;48.200;12.418;2022-08-21T13:15:24;1.80;;;0.93;;
50976;SDS011;36992;48.200;12.418;2022-08-21T13:17:54;1.23;;;0.77;;
50976;SDS011;36992;48.200;12.418;2022-08-21T13:20:28;1.33;;;0.50;;
50976;SDS011;36992;48.200;12.418;2022-08-21T13:22:55;1.20;;;0.60;;
50976;SDS011;36992;48.200;12.418;2022-08-21T13:25:25;1.50;;;0.85;;
50976;SDS011;36992;48.200;12.418;2022-08-21T13:27:58;2.70;;;0.73;;
50976;SDS011;36992;48.200;12.418;2022-08-21T13:30:27;1.20;;;0.70;;
50976;SDS011;36992;48.200;12.418;2022-08-21T13:32:55;1.80;;;0.90;;
50976;SDS011;36992;48.200;12.418;2022-08-21T13:35:25;3.25;;;0.82;;
50976;SDS011;36992;48.200;12.418;2022-08-21T13:37:54;1.13;;;0.57;;
50976;SDS011;36992;48.200;12.418;2022-08-21T13:40:23;2.60;;;0.70;;
50976;SDS011;36992;48.200;12.418;2022-08-21T13:42:52;1.40;;;0.55;;
50976;SDS011;36992;48.200;12.418;2022-08-21T13:45:23;1.20;;;0.52;;
50976;SDS011;36992;48.200;12.418;2022-08-21T13:47:51;1.60;;;0.50;;
50976;SDS011;36992;48.200;12.418;2022-08-21T13:50:20;1.60;;;0.60;;
50976;SDS011;36992;48.200;12.418;2022-08-21T13:52:53;1.70;;;0.77;;
50976;SDS011;36992;48.200;12.418;2022-08-21T13:55:23;1.10;;;0.60;;
50976;SDS011;36992;48.200;12.418;2022-08-21T13:58:00;2.35;;;1.02;;
50976;SDS011;36992;48.200;12.418;2022-08-21T14:00:30;1.48;;;0.75;;
50976;SDS011;36992;48.200;12.418;2022-08-21T14:03:01;0.88;;;0.40;;
50976;SDS011;36992;48.200;12.418;2022-08-21T14:05:31;1.70;;;0.77;;
50976;SDS011;36992;48.200;12.418;2022-08-21T14:08:01;1.83;;;0.80;;
50976;SDS011;36992;48.200;12.418;2022-08-21T14:10:30;1.85;;;1.00;;
50976;SDS011;36992;48.200;12.418;2022-08-21T14:12:58;1.38;;;0.63;;
50976;SDS011;36992;48.200;12.418;2022-08-21T14:15:30;1.38;;;0.82;;
50976;SDS011;36992;48.200;12.418;2022-08-21T14:18:06;1.50;;;0.77;;
50976;SDS011;36992;48.200;12.418;2022-08-21T14:20:35;1.58;;;0.70;;
50976;SDS011;36992;48.200;12.418;2022-08-21T14:23:02;1.75;;;0.70;;
50976;SDS011;36992;48.200;12.418;2022-08-21T14:25:30;1.80;;;0.77;;
50976;SDS011;36992;48.200;12.418;2022-08-21T14:28:09;1.70;;;0.70;;
50976;SDS011;36992;48.200;12.418;2022-08-21T14:30:42;2.30;;;0.75;;
50976;SDS011;36992;48.200;12.418;2022-08-21T14:33:10;1.58;;;1.00;;
50976;SDS011;36992;48.200;12.418;2022-08-21T14:35:39;1.10;;;0.50;;
50976;SDS011;36992;48.200;12.418;2022-08-21T14:38:14;1.75;;;0.80;;
50976;SDS011;36992;48.200;12.418;2022-08-21T14:40:42;3.30;;;0.98;;
50976;SDS011;36992;48.200;12.418;2022-08-21T14:43:10;2.70;;;1.02;;
50976;SDS011;36992;48.200;12.418;2022-08-21T14:45:37;3.38;;;1.00;;
50976;SDS011;36992;48.200;12.418;2022-08-21T14:48:07;1.23;;;0.70;;
50976;SDS011;36992;48.200;12.418;2022-08-21T14:50:33;1.45;;;1.00;;
50976;SDS011;36992;48.200;12.418;2022-08-21T14:53:01;1.60;;;0.52;;
50976;SDS011;36992;48.200;12.418;2022-08-21T14:55:28;1.67;;;0.75;;